• Join FlightAware (Why Join?)
  • Login
  • US Flag 
03:50AM EDT


 

Airport Tracker/Info


-or-


 

Live Flight TrackerFlight Track Log ✈ USC105 ✈ 07-May-2013 ✈ KLCK - KBKL

Flight Track Log - Related Links

Times and Time Zones

All times are in EDT time to prevent confusion due to time zone crossing. See the USC105 flight status page for this flight to view local times or setup timezone preferences in your user account.

Time Position Orientation Groundspeed Altitude Reporting Facility
EDT Latitude Longitude Course Direction KTS MPH feet Rate Location/Type
09:56PM 39.8197 -82.9219 50° Northeast 111 128 1,000  Level Indianapolis Center
09:56PM 39.8361 -82.8967 50° Northeast 105 121 2,100 1,080 Climbing Indianapolis Center
09:57PM 39.8544 -82.8717 46° Northeast 107 123 3,000 960 Climbing Indianapolis Center
09:58PM 39.8617 -82.8625 44° Northeast 106 122 3,300 1,140 Climbing Indianapolis Center
09:59PM 39.8900 -82.8400 31° Northeast 112 129 4,500 1,080 Climbing Indianapolis Center
10:00PM 39.9208 -82.8194 27° Northeast 120 138 5,600 1,020 Climbing Indianapolis Center
10:01PM 39.9492 -82.7989 29° Northeast 120 138 6,600 660 Climbing Indianapolis Center
10:02PM 39.9828 -82.7739 30° Northeast 138 159 7,000 180 Climbing Indianapolis Center
10:03PM 40.0231 -82.7369 35° Northeast 172 198 7,000  Level Indianapolis Center
10:04PM 40.0631 -82.6936 40° Northeast 170 196 7,000  Level Indianapolis Center
10:05PM 40.1003 -82.6686 27° Northeast 174 200 7,000  Level Indianapolis Center
10:06PM 40.1331 -82.6442 30° Northeast 169 194 7,000  Level Indianapolis Center
10:06PM 40.1417 -82.6386 26° Northeast 169 194 7,000  Level Indianapolis Center
10:07PM 40.1842 -82.6075 29° Northeast 173 199 7,000  Level Indianapolis Center
10:08PM 40.2208 -82.5831 27° Northeast 169 194 7,000 -120 Level Indianapolis Center
10:08PM 40.2250 -82.5789 37° Northeast 166 191 6,900  Descending Indianapolis Center
10:09PM 40.2689 -82.5483 28° Northeast 169 194 7,000  Climbing Indianapolis Center
10:10PM 40.3094 -82.5186 29° Northeast 167 192 7,000 -60 Level Indianapolis Center
10:11PM 40.3525 -82.4903 27° Northeast 169 194 6,900  Descending Indianapolis Center
10:12PM 40.3956 -82.4619 27° Northeast 171 197 7,000  Climbing Indianapolis Center
10:13PM 40.4378 -82.4333 27° Northeast 169 194 7,000  Level Indianapolis Center
10:14PM 40.4806 -82.4036 28° Northeast 173 199 7,000  Level Indianapolis Center
10:15PM 40.5228 -82.3756 27° Northeast 169 194 7,000  Level Indianapolis Center
10:16PM 40.5656 -82.3458 28° Northeast 173 199 7,000  Level Indianapolis Center
10:17PM 40.6089 -82.3156 28° Northeast 175 201 7,000  Level Indianapolis Center
10:18PM 40.6517 -82.2861 28° Northeast 173 199 7,000  Level Indianapolis Center
10:19PM 40.7019 -82.2511 28° Northeast 175 201 7,000  Level Indianapolis Center
10:20PM 40.7444 -82.2219 27° Northeast 173 199 7,000  Level Indianapolis Center
10:21PM 40.7875 -82.1922 28° Northeast 173 199 7,100  Climbing Indianapolis Center
10:21PM 40.7939 -82.1903 13° North 175 201 7,000  Descending Cleveland Center
10:22PM 40.8442 -82.1558 27° Northeast 176 203 7,100  Climbing Cleveland Center
10:23PM 40.8886 -82.1239 29° Northeast 174 200 7,100  Level Cleveland Center
10:24PM 40.9306 -82.0975 25° Northeast 174 200 7,100  Level Cleveland Center
10:26PM 40.9811 -82.0628 27° Northeast 175 201 7,100  Level Cleveland Center
10:26PM 41.0147 -82.0333 33° Northeast 174 200 7,100 -240 Level Cleveland Center
10:27PM 41.0550 -81.9931 37° Northeast 181 208 6,700 -420 Descending Cleveland Center
10:28PM 41.0825 -81.9494 50° Northeast 183 211 6,300 -540 Descending Cleveland Center
10:29PM 41.1144 -81.8922 53° Northeast 176 203 5,700 -600 Descending Cleveland Center
10:30PM 41.1483 -81.8433 47° Northeast 185 213 5,200 -540 Descending Cleveland Center
10:31PM 41.1844 -81.7972 44° Northeast 181 208 4,700 -480 Descending Cleveland Center
10:33PM 41.2244 -81.7453 44° Northeast 181 208 4,300 -360 Descending Cleveland Center
10:34PM 41.2603 -81.6964 46° Northeast 176 203 4,000 -480 Descending Cleveland Center
10:35PM 41.2900 -81.6414 54° Northeast 181 208 3,400 -540 Descending Cleveland Center
10:36PM 41.3381 -81.6258 14° North 183 211 3,000 -240 Descending Cleveland Center
10:37PM 41.3822 -81.6097 15° North 157 181 3,000 -60 Level Cleveland Center
10:38PM 41.4239 -81.5883 21° North 155 178 2,900 -300 Descending Cleveland Center
10:38PM 41.4614 -81.5972 350° North 175 201 2,500 -720 Descending Cleveland Center
10:39PM 41.5050 -81.6311 330° Northwest 176 203 1,600 -900 Descending Cleveland Center
10:41PM 41.5167 -81.6667 354° North  Level FlightAware Approximate